Terminal Aerodrome Forecast
Issued by NWS Grand Forks, ND

Home | Current Version | Previous Version | Text Only | Print | Product List | Glossary Off
Versions: 1 2 3 4 5 6 7 8 9 10 11 12 13 14 15 16 17 18 19 20 21 22

276
FTUS43 KFGF 221402 AAA
TAFFAR
TAF AMD
KFAR 221402Z 2214/2312 01010KT P6SM BKN040
      TEMPO 2214/2217 BKN010
     FM222000 14013KT P6SM BKN045
     FM230100 19008KT P6SM SCT120
     FM230300 32011KT P6SM BKN035
     FM230500 32012KT P6SM BKN015=

USA.gov is the U.S. government's official web portal to all federal, state and local government web resources and services.